createdAt,value
2018-09-06T00:01:03.124Z,101512.58
2018-09-06T00:04:07.659Z,101505.13
2018-09-06T00:07:12.059Z,101507.77
2018-09-06T00:10:16.588Z,101509.03
2018-09-06T00:13:21.346Z,101505.53
2018-09-06T00:16:25.752Z,101505.55
2018-09-06T00:19:30.237Z,101504.64
2018-09-06T00:22:34.905Z,101500.22
2018-09-06T00:25:39.253Z,101495.00
2018-09-06T00:28:43.621Z,101496.76
2018-09-06T00:31:47.960Z,101491.09
2018-09-06T00:34:52.304Z,101490.16
2018-09-06T00:37:56.821Z,101488.81
2018-09-06T00:41:01.199Z,101492.29
2018-09-06T00:44:05.555Z,101487.45
2018-09-06T00:47:09.973Z,101485.67
2018-09-06T00:50:16.408Z,101487.41
2018-09-06T00:53:20.708Z,101481.30
2018-09-06T00:56:26.490Z,101484.77
2018-09-06T00:59:30.797Z,101478.23
2018-09-06T01:02:35.666Z,101475.61
2018-09-06T01:05:40.549Z,101474.71
2018-09-06T01:08:44.916Z,101471.20
2018-09-06T01:11:49.358Z,101463.75
2018-09-06T01:14:54.216Z,101468.98
2018-09-06T01:17:59.037Z,101464.56
2018-09-06T01:21:04.025Z,101462.34
2018-09-06T01:24:08.689Z,101467.59
2018-09-06T01:27:13.102Z,101467.17
2018-09-06T01:30:18.311Z,101465.47
2018-09-06T01:33:22.597Z,101461.06
2018-09-06T01:36:32.780Z,101460.20
2018-09-06T01:39:38.656Z,101459.77
2018-09-06T01:42:43.625Z,101455.38
2018-09-06T01:45:47.987Z,101457.10
2018-09-06T01:48:53.994Z,101456.23
2018-09-06T01:51:58.682Z,101453.16
2018-09-06T01:55:03.577Z,101449.63
2018-09-06T01:58:08.276Z,101448.30
2018-09-06T02:01:13.457Z,101445.23
2018-09-06T02:04:18.576Z,101443.07
2018-09-06T02:07:24.571Z,101442.64
2018-09-06T02:10:29.260Z,101438.69
2018-09-06T02:13:34.768Z,101433.88
2018-09-06T02:16:39.711Z,101436.50
2018-09-06T02:19:45.411Z,101435.17
2018-09-06T02:22:50.959Z,101432.54
2018-09-06T02:25:56.100Z,101434.70
2018-09-06T02:29:00.438Z,101433.81
2018-09-06T02:32:04.737Z,101427.64
2018-09-06T02:35:09.076Z,101432.41
2018-09-06T02:38:15.327Z,101424.49
2018-09-06T02:41:20.651Z,101422.75
2018-09-06T02:44:25.607Z,101415.33
2018-09-06T02:47:31.239Z,101412.30
2018-09-06T02:50:40.998Z,101408.34
2018-09-06T02:53:45.600Z,101406.16
2018-09-06T02:56:50.572Z,101403.56
2018-09-06T02:59:56.105Z,101400.92
2018-09-06T03:03:02.275Z,101392.21
2018-09-06T03:06:08.214Z,101390.01
2018-09-06T03:09:13.148Z,101386.08
2018-09-06T03:12:18.212Z,101388.70
2018-09-06T03:15:23.641Z,101393.92
2018-09-06T03:18:28.249Z,101384.80
2018-09-06T03:21:33.506Z,101389.98
2018-09-06T03:24:37.843Z,101379.09
2018-09-06T03:27:42.165Z,101373.00
2018-09-06T03:30:46.474Z,101372.13
2018-09-06T03:33:52.105Z,101365.55
2018-09-06T03:36:56.462Z,101368.20
2018-09-06T03:40:01.703Z,101366.91
2018-09-06T03:43:09.201Z,101364.24
2018-09-06T03:46:14.276Z,101359.05
2018-09-06T03:49:18.901Z,101362.94
2018-09-06T03:52:24.327Z,101359.02
2018-09-06T03:55:28.989Z,101362.89
2018-09-06T03:58:33.318Z,101358.89
2018-09-06T04:01:37.665Z,101359.78
2018-09-06T04:04:42.038Z,101359.31
2018-09-06T04:07:46.340Z,101361.05
2018-09-06T04:10:50.653Z,101360.59
2018-09-06T04:13:55.341Z,101355.41
2018-09-06T04:16:59.702Z,101350.59
2018-09-06T04:20:06.666Z,101350.57
2018-09-06T04:23:11.014Z,101351.87
2018-09-06T04:26:15.847Z,101353.58
2018-09-06T04:29:21.514Z,101355.30
2018-09-06T04:32:25.857Z,101355.34
2018-09-06T04:35:30.233Z,101349.66
2018-09-06T04:38:34.475Z,101356.17
2018-09-06T04:41:38.928Z,101349.20
2018-09-06T04:44:43.366Z,101356.61
2018-09-06T04:47:47.662Z,101349.67
2018-09-06T04:50:51.967Z,101338.73
2018-09-06T04:53:56.513Z,101341.38
2018-09-06T04:57:01.393Z,101346.19
2018-09-06T05:00:05.763Z,101349.27
2018-09-06T05:03:10.028Z,101353.58
2018-09-06T05:06:14.544Z,101357.96
2018-09-06T05:09:19.100Z,101359.34
2018-09-06T05:12:23.478Z,101358.94
2018-09-06T05:15:27.933Z,101360.25
2018-09-06T05:18:32.700Z,101361.14
2018-09-06T05:21:37.604Z,101358.56
2018-09-06T05:24:42.528Z,101359.47
2018-09-06T05:27:47.591Z,101356.06
2018-09-06T05:30:52.123Z,101355.22
2018-09-06T05:33:56.420Z,101354.81
2018-09-06T05:37:01.074Z,101351.36
2018-09-06T05:40:05.456Z,101351.84
2018-09-06T05:43:09.994Z,101350.59
2018-09-06T05:46:14.421Z,101354.11
2018-09-06T05:49:18.937Z,101349.77
2018-09-06T05:52:23.264Z,101344.54
2018-09-06T05:55:27.692Z,101339.34
2018-09-06T05:58:32.009Z,101341.09
2018-09-06T06:01:36.369Z,101338.06
2018-09-06T06:04:40.827Z,101338.52
2018-09-06T06:08:02.397Z,101336.80
2018-09-06T06:11:07.122Z,101322.80
2018-09-06T06:14:11.641Z,101326.77
2018-09-06T06:17:16.075Z,101330.76
2018-09-06T06:20:20.483Z,101329.03
2018-09-06T06:23:24.893Z,101322.05
2018-09-06T06:26:29.329Z,101318.56
2018-09-06T06:29:34.061Z,101314.17
2018-09-06T06:32:38.602Z,101313.74
2018-09-06T06:35:43.020Z,101315.03
2018-09-06T06:38:47.332Z,101310.21
2018-09-06T06:41:51.740Z,101312.38
2018-09-06T06:44:56.013Z,101304.52
2018-09-06T06:48:00.378Z,101295.28
2018-09-06T06:51:04.757Z,101293.96
2018-09-06T06:54:09.156Z,101297.41
2018-09-06T06:57:13.562Z,101302.22
2018-09-06T07:00:18.633Z,101302.64
2018-09-06T07:03:23.041Z,101293.41
2018-09-06T07:06:27.398Z,101295.55
2018-09-06T07:09:31.705Z,101292.89
2018-09-06T07:12:36.061Z,101297.20
2018-09-06T07:15:40.337Z,101293.27
2018-09-06T07:18:44.669Z,101291.91
2018-09-06T07:21:48.949Z,101301.47
2018-09-06T07:24:53.248Z,101304.92
2018-09-06T07:27:57.559Z,101300.08
2018-09-06T07:31:01.878Z,101295.63
2018-09-06T07:34:06.133Z,101296.47
2018-09-06T07:37:10.491Z,101296.47
2018-09-06T07:40:14.799Z,101292.01
2018-09-06T07:43:19.123Z,101297.63
2018-09-06T07:46:23.483Z,101296.28
2018-09-06T07:49:27.804Z,101293.20
2018-09-06T07:52:32.209Z,101294.93
2018-09-06T07:55:36.534Z,101297.42
2018-09-06T07:58:40.852Z,101292.23
2018-09-06T08:01:45.344Z,101291.84
2018-09-06T08:04:49.699Z,101300.13
2018-09-06T08:07:54.123Z,101301.13
2018-09-06T08:10:59.902Z,101308.48
2018-09-06T08:14:04.276Z,101302.83
2018-09-06T08:17:08.979Z,101299.75
2018-09-06T08:20:13.306Z,101297.98
2018-09-06T08:23:17.642Z,101294.79
2018-09-06T08:26:22.483Z,101290.87
2018-09-06T08:29:28.345Z,101292.45
2018-09-06T08:32:33.073Z,101291.14
2018-09-06T08:35:37.409Z,101284.30
2018-09-06T08:38:41.901Z,101286.20
2018-09-06T08:41:46.236Z,101285.38
2018-09-06T08:44:50.512Z,101291.61
2018-09-06T08:47:54.908Z,101289.16
2018-09-06T08:51:00.038Z,101288.11
2018-09-06T08:54:04.843Z,101291.78
2018-09-06T08:57:09.805Z,101285.19
2018-09-06T09:00:14.131Z,101284.23
2018-09-06T09:03:18.624Z,101279.25
2018-09-06T09:06:24.169Z,101269.66
2018-09-06T09:09:29.714Z,101263.42
2018-09-06T09:12:34.284Z,101267.47
2018-09-06T09:15:38.525Z,101267.44
2018-09-06T09:18:43.070Z,101266.11
2018-09-06T09:21:47.995Z,101265.77
2018-09-06T09:24:53.311Z,101264.55
2018-09-06T09:27:58.479Z,101255.10
2018-09-06T09:31:02.828Z,101252.66
2018-09-06T09:34:08.849Z,101242.84
2018-09-06T09:37:13.310Z,101243.53
2018-09-06T09:40:17.681Z,101233.61
2018-09-06T09:43:23.348Z,101240.52
2018-09-06T09:49:33.231Z,101234.82
2018-09-06T09:52:37.939Z,101224.55
2018-09-06T09:55:42.389Z,101219.00
2018-09-06T09:58:46.855Z,101216.44
2018-09-06T10:01:58.213Z,101219.99
2018-09-06T10:05:08.286Z,101213.45
2018-09-06T10:08:18.026Z,101208.95
2018-09-06T10:11:24.089Z,101206.05
2018-09-06T10:14:29.067Z,101201.11
2018-09-06T10:17:34.638Z,101196.88
2018-09-06T10:20:41.383Z,101198.20
2018-09-06T10:23:48.161Z,101194.12
2018-09-06T10:26:53.185Z,101190.78
2018-09-06T10:29:58.047Z,101187.30
2018-09-06T10:33:04.055Z,101185.34
2018-09-06T10:36:09.118Z,101189.34
2018-09-06T10:39:15.239Z,101196.16
2018-09-06T10:42:21.803Z,101187.01
2018-09-06T10:45:30.558Z,101183.63
2018-09-06T10:48:35.567Z,101188.46
2018-09-06T10:51:40.901Z,101181.55
2018-09-06T10:54:45.992Z,101180.50
2018-09-06T10:57:51.742Z,101179.95
2018-09-06T11:01:02.545Z,101171.89
2018-09-06T11:04:07.704Z,101159.03
2018-09-06T11:07:12.836Z,101153.59
2018-09-06T11:10:17.483Z,101149.89
2018-09-06T11:13:22.264Z,101148.67
2018-09-06T11:16:27.575Z,101156.31
2018-09-06T11:19:32.632Z,101148.07
2018-09-06T11:22:37.197Z,101149.44
2018-09-06T11:25:41.292Z,101141.45
2018-09-06T11:28:45.587Z,101137.39
2018-09-06T11:31:49.909Z,101135.44
2018-09-06T11:34:54.247Z,101129.38
2018-09-06T11:37:58.557Z,101134.70
2018-09-06T11:41:02.911Z,101128.22
2018-09-06T11:44:07.629Z,101118.60
2018-09-06T11:47:12.107Z,101116.86
2018-09-06T11:50:16.450Z,101120.72
2018-09-06T11:53:20.788Z,101112.79
2018-09-06T11:56:25.216Z,101118.60
2018-09-06T11:59:29.707Z,101113.62
2018-09-06T12:02:34.191Z,101112.55
2018-09-06T12:05:38.600Z,101111.60
2018-09-06T12:08:42.944Z,101108.80
2018-09-06T12:11:47.322Z,101106.94
2018-09-06T12:14:51.712Z,101100.55
2018-09-06T12:17:56.095Z,101107.66
2018-09-06T12:21:00.491Z,101093.63
2018-09-06T12:24:04.805Z,101089.91
2018-09-06T12:27:11.532Z,101089.22
2018-09-06T12:30:16.879Z,101088.55
2018-09-06T12:33:23.511Z,101083.42
2018-09-06T12:36:29.054Z,101083.11
2018-09-06T12:39:34.910Z,101088.95
2018-09-06T12:42:40.330Z,101085.44
2018-09-06T12:45:45.981Z,101071.34
2018-09-06T12:48:52.126Z,101064.17
2018-09-06T12:51:57.356Z,101066.27
2018-09-06T12:55:03.290Z,101062.38
2018-09-06T12:58:08.833Z,101066.27
2018-09-06T13:01:14.467Z,101053.98
2018-09-06T13:04:19.752Z,101049.02
2018-09-06T13:07:25.361Z,101053.07
2018-09-06T13:10:30.482Z,101056.96
2018-09-06T13:13:35.554Z,101057.68
2018-09-06T13:16:40.047Z,101055.13
2018-09-06T13:19:45.386Z,101039.31
2018-09-06T13:22:50.262Z,101038.77
2018-09-06T13:25:54.916Z,101030.36
2018-09-06T13:28:59.240Z,101040.09
2018-09-06T13:32:03.562Z,101029.97
2018-09-06T13:35:08.623Z,101022.11
2018-09-06T13:38:13.998Z,101023.84
2018-09-06T13:41:18.389Z,101025.41
2018-09-06T13:44:23.474Z,101027.33
2018-09-06T13:47:27.850Z,101021.58
2018-09-06T13:50:33.802Z,101021.74
2018-09-06T13:53:38.948Z,101013.22
2018-09-06T13:56:43.983Z,101017.33
2018-09-06T13:59:49.121Z,101013.47
2018-09-06T14:02:55.320Z,101007.16
2018-09-06T14:05:59.785Z,101000.03
2018-09-06T14:09:05.160Z,101001.48
2018-09-06T14:12:09.577Z,100996.86
2018-09-06T14:15:14.733Z,100987.39
2018-09-06T14:18:19.807Z,100983.94
2018-09-06T14:21:24.759Z,100983.86
2018-09-06T14:24:30.317Z,100978.45
2018-09-06T14:27:34.780Z,100973.27
2018-09-06T14:30:39.084Z,100970.22
2018-09-06T14:33:43.380Z,100964.72
2018-09-06T14:36:47.688Z,100960.66
2018-09-06T14:39:51.934Z,100958.25
2018-09-06T14:42:56.494Z,100957.97
2018-09-06T14:46:00.858Z,100949.03
2018-09-06T14:49:05.246Z,100944.68
2018-09-06T14:52:09.571Z,100939.19
2018-09-06T14:55:13.948Z,100940.05
2018-09-06T14:58:18.265Z,100938.11
2018-09-06T15:01:22.704Z,100936.72
2018-09-06T15:04:27.100Z,100932.87
2018-09-06T15:07:31.508Z,100931.89
2018-09-06T15:10:35.812Z,100928.84
2018-09-06T15:13:40.141Z,100928.87
2018-09-06T15:16:44.550Z,100925.54
2018-09-06T15:19:48.969Z,100922.59
2018-09-06T15:22:53.266Z,100921.58
2018-09-06T15:25:57.649Z,100921.65
2018-09-06T15:29:02.051Z,100916.77
2018-09-06T15:32:06.794Z,100904.30
2018-09-06T15:35:11.180Z,100898.50
2018-09-06T15:38:15.522Z,100903.62
2018-09-06T15:41:20.770Z,100901.44
2018-09-06T15:44:25.101Z,100886.05
2018-09-06T15:47:29.426Z,100881.01
2018-09-06T15:50:33.721Z,100879.54
2018-09-06T15:53:39.304Z,100881.08
2018-09-06T15:56:43.688Z,100882.95
2018-09-06T15:59:48.008Z,100878.78
2018-09-06T16:02:52.793Z,100869.19
2018-09-06T16:05:57.139Z,100871.58
2018-09-06T16:09:01.476Z,100866.68
2018-09-06T16:12:05.780Z,100871.26
2018-09-06T16:15:10.117Z,100870.63
2018-09-06T16:18:14.394Z,100866.20
2018-09-06T16:21:18.666Z,100867.98
2018-09-06T16:24:22.991Z,100860.17
2018-09-06T16:27:27.438Z,100861.08
2018-09-06T16:30:32.066Z,100858.52
2018-09-06T16:33:36.322Z,100859.52
2018-09-06T16:36:40.781Z,100857.69
2018-09-06T16:39:45.314Z,100860.44
2018-09-06T16:42:49.959Z,100854.34
2018-09-06T16:45:54.286Z,100857.73
2018-09-06T16:48:59.575Z,100856.56
2018-09-06T16:52:04.005Z,100855.33
2018-09-06T16:55:08.518Z,100847.05
2018-09-06T16:58:12.948Z,100844.06
2018-09-06T17:01:17.464Z,100842.27
2018-09-06T17:04:22.047Z,100843.75
2018-09-06T17:07:26.379Z,100837.14
2018-09-06T17:10:30.763Z,100829.72
2018-09-06T17:13:35.087Z,100825.50
2018-09-06T17:16:39.500Z,100823.42
2018-09-06T17:19:43.809Z,100820.88
2018-09-06T17:22:48.357Z,100819.12
2018-09-06T17:25:52.884Z,100816.61
2018-09-06T17:28:57.429Z,100812.97
2018-09-06T17:32:02.270Z,100811.65
2018-09-06T17:35:06.793Z,100808.63
2018-09-06T17:38:11.182Z,100799.87
2018-09-06T17:41:15.762Z,100805.74
2018-09-06T17:44:20.189Z,100808.32
2018-09-06T17:47:24.603Z,100804.87
2018-09-06T17:50:29.181Z,100803.95
2018-09-06T17:53:33.678Z,100801.38
2018-09-06T17:56:38.121Z,100794.33
2018-09-06T17:59:42.780Z,100789.93
2018-09-06T18:02:47.550Z,100789.59
2018-09-06T18:05:51.874Z,100794.86
2018-09-06T18:08:56.241Z,100790.05
2018-09-06T18:12:00.622Z,100795.78
2018-09-06T18:15:05.430Z,100785.31
2018-09-06T18:18:09.754Z,100785.31
2018-09-06T18:21:14.176Z,100787.89
2018-09-06T18:24:18.622Z,100790.47
2018-09-06T18:27:23.100Z,100789.62
2018-09-06T18:30:27.454Z,100788.73
2018-09-06T18:33:31.963Z,100786.16
2018-09-06T18:36:36.330Z,100790.59
2018-09-06T18:39:40.621Z,100787.64
2018-09-06T18:42:45.018Z,100797.72
2018-09-06T18:45:49.425Z,100799.56
2018-09-06T18:48:54.170Z,100792.95
2018-09-06T18:51:58.628Z,100782.48
2018-09-06T18:55:03.034Z,100796.00
2018-09-06T18:58:07.404Z,100785.14
2018-09-06T19:01:12.429Z,100786.05
2018-09-06T19:04:17.236Z,100789.62
2018-09-06T19:07:22.854Z,100793.02
2018-09-06T19:10:34.512Z,100798.81
2018-09-06T19:13:39.990Z,100789.21
2018-09-06T19:16:44.521Z,100785.20
2018-09-06T19:19:48.954Z,100786.46
2018-09-06T19:22:53.302Z,100786.59
2018-09-06T19:25:59.397Z,100780.05
2018-09-06T19:29:04.750Z,100778.74
2018-09-06T19:32:09.989Z,100789.79
2018-09-06T19:35:14.569Z,100777.09
2018-09-06T19:38:18.994Z,100782.81
2018-09-06T19:41:23.392Z,100781.45
2018-09-06T19:44:27.726Z,100782.07
2018-09-06T19:47:33.359Z,100776.88
2018-09-06T19:50:37.869Z,100779.04
2018-09-06T19:53:46.638Z,100776.01
2018-09-06T19:56:54.819Z,100769.05
2018-09-06T19:59:59.858Z,100767.73
2018-09-06T20:03:04.799Z,100766.06
2018-09-06T20:06:09.913Z,100760.73
2018-09-06T20:09:15.551Z,100760.74
2018-09-06T20:12:20.499Z,100757.97
2018-09-06T20:15:25.875Z,100755.06
2018-09-06T20:18:30.590Z,100758.13
2018-09-06T20:21:35.252Z,100745.34
2018-09-06T20:24:41.806Z,100740.59
2018-09-06T20:27:46.634Z,100740.59
2018-09-06T20:30:52.372Z,100738.87
2018-09-06T20:33:58.100Z,100748.48
2018-09-06T20:37:02.521Z,100738.75
2018-09-06T20:40:07.269Z,100742.59
2018-09-06T20:43:11.767Z,100735.48
2018-09-06T20:46:16.662Z,100735.01
2018-09-06T20:49:21.245Z,100730.98
2018-09-06T20:52:26.702Z,100732.84
2018-09-06T20:55:31.430Z,100716.97
2018-09-06T20:58:36.210Z,100721.41
2018-09-06T21:01:41.388Z,100717.52
2018-09-06T21:04:46.432Z,100725.41
2018-09-06T21:07:50.956Z,100719.73
2018-09-06T21:10:55.361Z,100714.03
2018-09-06T21:13:59.783Z,100711.44
2018-09-06T21:17:06.936Z,100708.42
2018-09-06T21:20:12.013Z,100702.23
2018-09-06T21:23:17.016Z,100705.34
2018-09-06T21:26:21.439Z,100704.47
2018-09-06T21:29:29.219Z,100710.61
2018-09-06T21:32:33.545Z,100702.68
2018-09-06T21:35:38.591Z,100710.19
2018-09-06T21:38:43.772Z,100707.11
2018-09-06T21:41:48.791Z,100711.44
2018-09-06T21:44:53.304Z,100716.38
2018-09-06T21:47:57.821Z,100721.19
2018-09-06T21:51:05.955Z,100719.42
2018-09-06T21:54:10.544Z,100718.63
2018-09-06T21:57:14.840Z,100717.36
2018-09-06T22:00:19.567Z,100715.80
2018-09-06T22:04:26.985Z,100713.23
2018-09-06T22:07:31.973Z,100711.29
2018-09-06T22:10:37.194Z,100709.12
2018-09-06T22:13:41.604Z,100707.98
2018-09-06T22:16:46.474Z,100703.64
2018-09-06T22:19:52.893Z,100707.30
2018-09-06T22:22:57.643Z,100695.86
2018-09-06T22:26:02.397Z,100693.73
2018-09-06T22:29:07.289Z,100688.08
2018-09-06T22:32:13.436Z,100691.27
2018-09-06T22:35:18.337Z,100688.69
2018-09-06T22:38:23.073Z,100696.47
2018-09-06T22:41:28.296Z,100697.03
2018-09-06T22:44:32.993Z,100688.78
2018-09-06T22:47:39.578Z,100694.50
2018-09-06T22:50:45.358Z,100692.78
2018-09-06T22:53:49.743Z,100687.98
2018-09-06T22:56:54.059Z,100673.63
2018-09-06T22:59:58.332Z,100677.11
2018-09-06T23:03:09.996Z,100673.17
2018-09-06T23:06:14.259Z,100670.09
2018-09-06T23:09:19.224Z,100674.44
2018-09-06T23:12:23.530Z,100669.73
2018-09-06T23:15:31.378Z,100674.09
2018-09-06T23:18:35.883Z,100665.31
2018-09-06T23:21:40.355Z,100667.12
2018-09-06T23:24:44.899Z,100664.05
2018-09-06T23:27:51.972Z,100656.66
2018-09-06T23:30:57.244Z,100657.06
2018-09-06T23:34:02.921Z,100657.97
2018-09-06T23:37:07.510Z,100656.22
2018-09-06T23:40:12.470Z,100658.42
2018-09-06T23:43:20.516Z,100653.98
2018-09-06T23:46:24.864Z,100654.53
2018-09-06T23:49:29.218Z,100647.97
2018-09-06T23:52:33.440Z,100644.93
2018-09-06T23:55:37.704Z,100645.44
2018-09-06T23:58:42.019Z,100644.58
